• Join FlightAware (Why Join?)
  • Login
  • US Flag 
09:26PM EDT


 

Airport Tracker/Info


-or-


 

Live Flight TrackerFlight Track Log ✈ N531QS ✈ 26-Jun-2013 ✈ KCLE - KJAX

Flight Track Log - Related Links

Times and Time Zones

All times are in EDT time to prevent confusion due to time zone crossing. See the N531QS flight status page for this flight to view local times or setup timezone preferences in your user account.

Time Position Orientation Groundspeed Altitude Reporting Facility
EDT Latitude Longitude Course Direction KTS MPH feet Rate Location/Type
03:43PM 41.4431 -81.7742 71° East 222 255 4,400  Level Cleveland Center
03:44PM 41.4583 -81.7136 71° East 280 322 5,300 1,800 Climbing Cleveland Center
03:45PM 41.4175 -81.6075 117° Southeast 281 323 8,100 2,460 Climbing Cleveland Center
03:46PM 41.3483 -81.6508 205° Southwest 240 276 11,300 3,000 Climbing Cleveland Center
03:47PM 41.2725 -81.7214 215° Southwest 263 303 14,100 2,700 Climbing Cleveland Center
03:48PM 41.1969 -81.7917 215° Southwest 302 348 16,800 2,400 Climbing Cleveland Center
03:49PM 41.1169 -81.8619 214° Southwest 359 413 18,900 1,200 Climbing Cleveland Center
03:50PM 41.0222 -81.9344 210° Southwest 397 457 19,200 900 Climbing Cleveland Center
03:51PM 40.9236 -81.9956 205° Southwest 397 457 20,800 1,500 Climbing Cleveland Center
03:52PM 40.8225 -82.0731 210° Southwest 420 483 22,300 1,440 Climbing Cleveland Center
03:53PM 40.7469 -82.1303 210° Southwest 451 519 23,300 1,440 Climbing Indianapolis Center
03:54PM 40.6364 -82.2175 211° Southwest 459 528 24,800 1,560 Climbing Indianapolis Center
03:55PM 40.5042 -82.3183 210° Southwest 465 535 26,600 1,560 Climbing Indianapolis Center
03:56PM 40.3889 -82.4081 211° Southwest 476 548 28,100 1,200 Climbing Indianapolis Center
03:57PM 40.2703 -82.4994 210° Southwest 488 562 29,100 900 Climbing Indianapolis Center
03:58PM 40.1533 -82.5572 201° Southwest 482 555 30,000 840 Climbing Indianapolis Center
03:59PM 40.0175 -82.5714 185° South 482 555 30,900 2,040 Climbing Indianapolis Center
04:00PM 39.8594 -82.5494 174° South 481 554 34,300 2,700 Climbing Indianapolis Center
04:01PM 39.7264 -82.5303 174° South 476 548 36,500 2,040 Climbing Indianapolis Center
04:02PM 39.5919 -82.5114 174° South 478 550 38,600 1,800 Climbing Indianapolis Center
04:03PM 39.4592 -82.4925 174° South 476 548 40,300 1,140 Climbing Indianapolis Center
04:04PM 39.3147 -82.4728 174° South 483 556 41,000 300 Climbing Indianapolis Center
04:05PM 39.1797 -82.4564 175° South 488 562 41,000  Level Indianapolis Center
04:06PM 39.0458 -82.4367 173° South 485 558 41,000  Level Indianapolis Center
04:07PM 38.9114 -82.4194 174° South 488 562 41,000  Level Indianapolis Center
04:08PM 38.7756 -82.4017 174° South 491 565 41,000  Level Indianapolis Center
04:09PM 38.6119 -82.3803 174° South 494 568 41,000  Level Indianapolis Center
04:10PM 38.4750 -82.3622 174° South 497 572 41,000 240 Level Indianapolis Center
04:11PM 38.3403 -82.3436 174° South 491 565 41,500 960 Climbing Indianapolis Center
04:12PM 38.2075 -82.3269 174° South 483 556 43,000 720 Climbing Indianapolis Center
04:13PM 38.0531 -82.3069 174° South 486 559 43,000  Level Indianapolis Center
04:14PM 37.9158 -82.2892 174° South 493 567 43,000  Level Indianapolis Center
04:16PM 37.7789 -82.2694 174° South 494 568 43,000 240 Level Indianapolis Center
04:17PM 37.6414 -82.2506 174° South 494 568 43,500 600 Climbing Indianapolis Center
04:18PM 37.5069 -82.2358 175° South 486 559 44,300 720 Climbing Indianapolis Center
04:19PM 37.3750 -82.2194 174° South 477 549 45,000 300 Climbing Indianapolis Center
04:20PM 37.2269 -82.1997 174° South 460 529 45,000  Level Indianapolis Center
04:21PM 37.0994 -82.1831 174° South 456 525 45,000  Level Indianapolis Center
04:22PM 36.9697 -82.1664 174° South 463 533 45,000  Level Indianapolis Center
04:23PM 36.8192 -82.1478 174° South 462 532 45,000  Level Indianapolis Center
04:24PM 36.6906 -82.1322 174° South 461 531 45,000  Level Indianapolis Center
04:25PM 36.5400 -82.1131 174° South 463 533 45,000  Level Indianapolis Center
04:26PM 36.4086 -82.0961 174° South 469 540 45,000  Level Indianapolis Center
04:27PM 36.2811 -82.0808 174° South 460 529 45,000 120 Level Indianapolis Center
04:28PM 36.1539 -82.0650 174° South 460 529 45,300 360 Climbing Indianapolis Center
04:29PM 36.0233 -82.0489 174° South 466 536 45,800 480 Climbing Indianapolis Center
04:30PM 35.8583 -82.0325 175° South 474 545 46,500 480 Climbing Atlanta Center
04:31PM 35.7244 -82.0181 175° South 485 558 47,000 240 Climbing Atlanta Center
04:32PM 35.5908 -82.0008 174° South 485 558 47,000  Level Atlanta Center
04:33PM 35.4508 -81.9839 174° South 485 558 47,000  Level Atlanta Center
04:34PM 35.3147 -81.9694 175° South 495 570 47,000  Level Atlanta Center
04:36PM 35.1881 -81.9724 181° South  Level FlightAware Approximate
04:36PM 35.0414 -81.9686 181° South 495 570 47,000  Level Atlanta Center
04:37PM 34.8933 -81.9725 181° South 495 570 47,000  Level Atlanta Center
04:38PM 34.7625 -82.0033 191° South 495 570 47,000  Level Atlanta Center
04:39PM 34.6317 -82.0419 194° South 490 564 47,000  Level Atlanta Center
04:40PM 34.5047 -82.0700 190° South 477 549 47,000  Level Atlanta Center
04:41PM 34.3839 -82.0881 187° South 482 555 47,000  Level Atlanta Center
04:42PM 34.2506 -82.0961 183° South 482 555 47,000  Level Atlanta Center
04:43PM 34.1264 -82.0389 159° South 473 544 47,000  Level Atlanta Center
04:44PM 34.0103 -81.9589 150° Southeast 472 543 47,000  Level Atlanta Center
04:45PM 33.8678 -81.9197 167° South 472 543 47,000 -900 Level Atlanta Center
04:46PM 33.7303 -81.9306 184° South 478 550 45,200 -1,860 Descending Atlanta Center
04:47PM 33.5925 -81.9367 182° South 490 564 43,300 -1,980 Descending Atlanta Center
04:48PM 33.4667 -81.8997 166° South 467 537 41,300 -2,100 Descending Atlanta Center
04:50PM 33.3806 -81.7483 124° Southeast 435 501 38,600 -2,280 Descending Jacksonville Center
04:51PM 33.3019 -81.6225 127° Southeast 440 506 36,100 -5,340 Descending Jacksonville Center
04:52PM 33.2275 -81.4944 125° Southeast 459 528 28,000 -4,080 Descending Jacksonville Center
04:53PM 33.1469 -81.3692 128° Southeast 472 543 28,000  Level Jacksonville Center
04:54PM 33.0700 -81.2392 125° Southeast 477 549 28,000 -420 Level Jacksonville Center
04:55PM 32.9319 -81.2069 169° South 444 511 27,200 -1,080 Descending Jacksonville Center
04:56PM 32.8006 -81.2194 185° South 439 505 25,900 -600 Descending Jacksonville Center
04:57PM 32.6736 -81.2464 190° South 458 527 26,000 -120 Climbing Jacksonville Center
04:58PM 32.5636 -81.2953 201° Southwest 469 540 25,700 -960 Descending Jacksonville Center
04:59PM 32.4306 -81.3542 200° South 476 548 24,100 -1,500 Descending Jacksonville Center
05:00PM 32.3247 -81.4078 203° Southwest 470 541 22,700 -1,860 Descending Jacksonville Center
05:01PM 32.2131 -81.4783 208° Southwest 432 497 20,400 -2,460 Descending Jacksonville Center
05:02PM 32.1156 -81.5386 208° Southwest 402 463 17,800 -2,700 Descending Jacksonville Center
05:03PM 32.0408 -81.6011 215° Southwest 379 436 15,000 -1,920 Descending Jacksonville Center
05:04PM 31.9497 -81.6633 210° Southwest 350 403 14,000 -540 Descending Jacksonville Center
05:05PM 31.8728 -81.7061 205° Southwest 337 388 14,000  Level Jacksonville Center
05:06PM 31.7794 -81.7586 206° Southwest 338 389 14,000  Level Jacksonville Center
05:07PM 31.6858 -81.8086 204° Southwest 363 418 14,000  Level Jacksonville Center
05:08PM 31.5964 -81.8583 205° Southwest 379 436 14,000  Level Jacksonville Center
05:10PM 31.3856 -81.8606 181° South 388 447 14,000 -720 Level Jacksonville Center
05:11PM 31.2769 -81.8547 177° South 388 447 12,000 -1,560 Descending Jacksonville Center
05:12PM 31.1769 -81.8703 188° South 377 434 10,900 -1,020 Descending Jacksonville Center
05:13PM 31.0914 -81.8614 175° South 314 361 10,000 -480 Descending Jacksonville Center
05:14PM 31.0119 -81.8503 173° South 305 351 10,000 -600 Level Jacksonville Center
05:15PM 30.9281 -81.8367 172° South 305 351 8,900 -2,040 Descending Jacksonville Center
05:16PM 30.8486 -81.8231 172° South 305 351 6,000 -2,880 Descending Jacksonville Center
05:17PM 30.7714 -81.8117 173° South 295 339 3,200 -2,040 Descending Jacksonville Center
05:18PM 30.7003 -81.7981 171° South 278 320 2,000 -720 Descending Jacksonville Center
05:19PM 30.6375 -81.7892 173° South 252 290 1,800 -180 Descending Jacksonville Center
05:20PM 30.5811 -81.7803 172° South 226 260 1,700 -180 Descending Jacksonville Center
05:21PM 30.5372 -81.7686 167° South 191 220 1,500 -540 Descending Jacksonville Center
05:22PM 30.5033 -81.7183 128° Southeast 117 135 400 -780 Descending Jacksonville Center
05:24PM 30.4941 -81.6879 170° South  Level Estimated
05:31PM 30.4941 -81.6879 170° South  Level Estimated